sensor_id;sensor_type;location;lat;lon;timestamp;pressure;altitude;pressure_sealevel;temperature;humidity
66021;BME280;52789;59.980;30.346;2022-12-16T00:00:06;100838.16;;;-6.31;90.36
66021;BME280;52789;59.980;30.346;2022-12-16T00:02:33;100849.06;;;-6.21;90.27
66021;BME280;52789;59.980;30.346;2022-12-16T00:04:59;100833.00;;;-6.31;90.17
66021;BME280;52789;59.980;30.346;2022-12-16T00:07:24;100831.19;;;-6.29;89.99
66021;BME280;52789;59.980;30.346;2022-12-16T00:09:50;100835.53;;;-6.30;90.31
66021;BME280;52789;59.980;30.346;2022-12-16T00:12:15;100803.50;;;-6.52;90.44
66021;BME280;52789;59.980;30.346;2022-12-16T00:14:40;100827.16;;;-6.38;90.18
66021;BME280;52789;59.980;30.346;2022-12-16T00:17:06;100834.97;;;-6.39;90.08
66021;BME280;52789;59.980;30.346;2022-12-16T00:19:34;100844.31;;;-6.34;90.31
66021;BME280;52789;59.980;30.346;2022-12-16T00:21:59;100837.63;;;-6.41;90.38
66021;BME280;52789;59.980;30.346;2022-12-16T00:24:25;100843.97;;;-6.49;89.98
66021;BME280;52789;59.980;30.346;2022-12-16T00:26:50;100844.31;;;-6.59;91.02
66021;BME280;52789;59.980;30.346;2022-12-16T00:29:16;100824.09;;;-6.74;91.96
66021;BME280;52789;59.980;30.346;2022-12-16T00:31:42;100844.16;;;-6.54;92.17
66021;BME280;52789;59.980;30.346;2022-12-16T00:34:15;100833.50;;;-6.46;92.00
66021;BME280;52789;59.980;30.346;2022-12-16T00:36:41;100826.53;;;-6.44;91.13
66021;BME280;52789;59.980;30.346;2022-12-16T00:39:08;100855.19;;;-6.24;91.45
66021;BME280;52789;59.980;30.346;2022-12-16T00:41:34;100861.06;;;-6.19;90.65
66021;BME280;52789;59.980;30.346;2022-12-16T00:44:00;100865.44;;;-6.21;90.50
66021;BME280;52789;59.980;30.346;2022-12-16T00:46:26;100845.22;;;-6.36;90.60
66021;BME280;52789;59.980;30.346;2022-12-16T00:48:51;100849.38;;;-6.31;90.92
66021;BME280;52789;59.980;30.346;2022-12-16T00:51:19;100862.91;;;-6.22;90.87
66021;BME280;52789;59.980;30.346;2022-12-16T00:53:45;100850.75;;;-6.20;91.41
66021;BME280;52789;59.980;30.346;2022-12-16T00:56:12;100861.69;;;-6.12;90.68
66021;BME280;52789;59.980;30.346;2022-12-16T00:58:43;100844.59;;;-6.18;90.68
66021;BME280;52789;59.980;30.346;2022-12-16T01:01:08;100862.53;;;-6.12;90.21
66021;BME280;52789;59.980;30.346;2022-12-16T01:03:35;100866.81;;;-6.11;90.50
66021;BME280;52789;59.980;30.346;2022-12-16T01:06:00;100861.72;;;-6.14;89.89
66021;BME280;52789;59.980;30.346;2022-12-16T01:08:26;100846.41;;;-6.20;90.01
66021;BME280;52789;59.980;30.346;2022-12-16T01:10:53;100858.47;;;-6.19;89.91
66021;BME280;52789;59.980;30.346;2022-12-16T01:13:20;100863.41;;;-6.13;90.07
66021;BME280;52789;59.980;30.346;2022-12-16T01:15:46;100868.84;;;-6.19;89.70
66021;BME280;52789;59.980;30.346;2022-12-16T01:18:11;100866.25;;;-6.19;89.92
66021;BME280;52789;59.980;30.346;2022-12-16T01:20:37;100843.97;;;-6.25;90.34
66021;BME280;52789;59.980;30.346;2022-12-16T01:23:03;100875.38;;;-6.09;90.31
66021;BME280;52789;59.980;30.346;2022-12-16T01:25:29;100876.09;;;-6.04;90.29
66021;BME280;52789;59.980;30.346;2022-12-16T01:27:55;100880.47;;;-6.06;90.45
66021;BME280;52789;59.980;30.346;2022-12-16T01:30:21;100882.34;;;-6.11;90.84
66021;BME280;52789;59.980;30.346;2022-12-16T01:32:46;100885.84;;;-6.12;91.05
66021;BME280;52789;59.980;30.346;2022-12-16T01:35:12;100884.22;;;-6.14;90.59
66021;BME280;52789;59.980;30.346;2022-12-16T01:37:37;100893.97;;;-6.21;90.21
66021;BME280;52789;59.980;30.346;2022-12-16T01:40:04;100887.31;;;-6.28;91.55
66021;BME280;52789;59.980;30.346;2022-12-16T01:42:30;100881.91;;;-6.22;91.74
66021;BME280;52789;59.980;30.346;2022-12-16T01:47:49;100872.09;;;-6.14;92.18
66021;BME280;52789;59.980;30.346;2022-12-16T01:50:17;100859.09;;;-6.12;92.75
66021;BME280;52789;59.980;30.346;2022-12-16T01:52:48;100870.41;;;-6.15;91.79
66021;BME280;52789;59.980;30.346;2022-12-16T01:55:20;100880.56;;;-6.09;92.01
66021;BME280;52789;59.980;30.346;2022-12-16T01:57:51;100876.97;;;-6.05;91.80
66021;BME280;52789;59.980;30.346;2022-12-16T02:00:18;100847.81;;;-6.35;91.37
66021;BME280;52789;59.980;30.346;2022-12-16T02:02:45;100873.50;;;-6.29;92.47
66021;BME280;52789;59.980;30.346;2022-12-16T02:05:14;100875.25;;;-6.29;92.01
66021;BME280;52789;59.980;30.346;2022-12-16T02:08:05;100886.34;;;-6.26;92.74
66021;BME280;52789;59.980;30.346;2022-12-16T02:19:11;100892.50;;;-6.28;92.66
66021;BME280;52789;59.980;30.346;2022-12-16T02:35:08;100889.50;;;-6.17;92.11
66021;BME280;52789;59.980;30.346;2022-12-16T02:38:04;100875.25;;;-6.29;92.72
66021;BME280;52789;59.980;30.346;2022-12-16T02:40:35;100908.09;;;-6.05;92.74
66021;BME280;52789;59.980;30.346;2022-12-16T02:43:03;100911.72;;;-6.10;92.31
66021;BME280;52789;59.980;30.346;2022-12-16T02:45:32;100902.59;;;-6.20;91.98
66021;BME280;52789;59.980;30.346;2022-12-16T02:47:58;100901.28;;;-6.32;92.04
66021;BME280;52789;59.980;30.346;2022-12-16T02:50:32;100916.59;;;-6.26;93.06
66021;BME280;52789;59.980;30.346;2022-12-16T02:53:00;100891.81;;;-6.33;93.08
66021;BME280;52789;59.980;30.346;2022-12-16T03:01:37;100920.16;;;-6.04;92.27
66021;BME280;52789;59.980;30.346;2022-12-16T03:04:09;100928.13;;;-6.10;92.52
66021;BME280;52789;59.980;30.346;2022-12-16T03:06:37;100933.31;;;-6.10;92.93
66021;BME280;52789;59.980;30.346;2022-12-16T03:09:08;100925.06;;;-6.21;92.31
66021;BME280;52789;59.980;30.346;2022-12-16T03:11:35;100944.16;;;-6.23;93.02
66021;BME280;52789;59.980;30.346;2022-12-16T03:14:04;100944.63;;;-6.12;93.48
66021;BME280;52789;59.980;30.346;2022-12-16T03:16:32;100948.97;;;-6.13;92.91
66021;BME280;52789;59.980;30.346;2022-12-16T03:19:05;100954.28;;;-6.16;92.82
66021;BME280;52789;59.980;30.346;2022-12-16T03:21:40;100945.13;;;-6.26;92.51
66021;BME280;52789;59.980;30.346;2022-12-16T03:24:09;100945.00;;;-6.23;93.70
66021;BME280;52789;59.980;30.346;2022-12-16T03:27:07;100955.16;;;-6.17;93.43
66021;BME280;52789;59.980;30.346;2022-12-16T03:29:58;100962.84;;;-6.14;94.22
66021;BME280;52789;59.980;30.346;2022-12-16T03:32:37;100962.63;;;-6.08;93.44
66021;BME280;52789;59.980;30.346;2022-12-16T03:35:20;100975.34;;;-6.00;93.75
66021;BME280;52789;59.980;30.346;2022-12-16T03:37:50;100974.41;;;-5.98;93.64
66021;BME280;52789;59.980;30.346;2022-12-16T03:40:18;100971.06;;;-6.01;93.20
66021;BME280;52789;59.980;30.346;2022-12-16T03:42:45;100972.88;;;-6.03;93.36
66021;BME280;52789;59.980;30.346;2022-12-16T03:45:19;100980.59;;;-6.02;93.25
66021;BME280;52789;59.980;30.346;2022-12-16T03:47:49;100976.47;;;-6.09;93.36
66021;BME280;52789;59.980;30.346;2022-12-16T03:50:15;100926.19;;;-6.28;93.53
66021;BME280;52789;59.980;30.346;2022-12-16T03:52:40;100981.28;;;-5.97;93.73
66021;BME280;52789;59.980;30.346;2022-12-16T03:55:06;100959.16;;;-6.07;93.78
66021;BME280;52789;59.980;30.346;2022-12-16T03:57:32;100981.69;;;-5.85;94.20
66021;BME280;52789;59.980;30.346;2022-12-16T03:59:58;100992.56;;;-5.74;93.87
66021;BME280;52789;59.980;30.346;2022-12-16T04:02:25;100997.44;;;-5.65;93.44
66021;BME280;52789;59.980;30.346;2022-12-16T04:04:50;100999.78;;;-5.59;93.04
66021;BME280;52789;59.980;30.346;2022-12-16T04:07:16;100993.94;;;-5.64;93.48
66021;BME280;52789;59.980;30.346;2022-12-16T04:09:45;101004.47;;;-5.69;92.29
66021;BME280;52789;59.980;30.346;2022-12-16T04:12:10;101010.88;;;-5.79;92.95
66021;BME280;52789;59.980;30.346;2022-12-16T04:14:57;101012.59;;;-5.79;93.46
66021;BME280;52789;59.980;30.346;2022-12-16T04:17:41;101025.50;;;-5.76;93.11
66021;BME280;52789;59.980;30.346;2022-12-16T04:20:37;101023.69;;;-5.74;93.15
66021;BME280;52789;59.980;30.346;2022-12-16T04:23:25;101033.13;;;-5.72;92.64
66021;BME280;52789;59.980;30.346;2022-12-16T04:26:11;101023.09;;;-5.82;92.01
66021;BME280;52789;59.980;30.346;2022-12-16T04:28:36;101039.38;;;-5.77;92.16
66021;BME280;52789;59.980;30.346;2022-12-16T04:31:02;101035.28;;;-5.84;92.51
66021;BME280;52789;59.980;30.346;2022-12-16T04:33:28;101037.41;;;-5.96;92.39
66021;BME280;52789;59.980;30.346;2022-12-16T04:36:12;101040.81;;;-5.94;92.42
66021;BME280;52789;59.980;30.346;2022-12-16T04:38:56;101049.91;;;-6.07;93.73
66021;BME280;52789;59.980;30.346;2022-12-16T04:41:40;101049.81;;;-6.04;93.83
66021;BME280;52789;59.980;30.346;2022-12-16T04:44:35;101046.25;;;-6.01;94.16
66021;BME280;52789;59.980;30.346;2022-12-16T04:47:20;101046.91;;;-5.95;93.78
66021;BME280;52789;59.980;30.346;2022-12-16T04:50:04;101051.78;;;-5.87;93.05
66021;BME280;52789;59.980;30.346;2022-12-16T04:52:52;101056.13;;;-5.87;92.41
66021;BME280;52789;59.980;30.346;2022-12-16T04:55:36;101061.66;;;-5.97;93.32
66021;BME280;52789;59.980;30.346;2022-12-16T04:58:21;101070.53;;;-6.04;93.67
66021;BME280;52789;59.980;30.346;2022-12-16T05:01:05;101069.88;;;-6.10;93.60
66021;BME280;52789;59.980;30.346;2022-12-16T05:03:49;101081.88;;;-6.06;93.26
66021;BME280;52789;59.980;30.346;2022-12-16T05:06:33;101049.75;;;-6.29;93.98
66021;BME280;52789;59.980;30.346;2022-12-16T05:09:17;101096.66;;;-6.10;93.81
66021;BME280;52789;59.980;30.346;2022-12-16T05:12:00;101091.75;;;-6.19;93.91
66021;BME280;52789;59.980;30.346;2022-12-16T05:14:45;101097.00;;;-6.20;94.36
66021;BME280;52789;59.980;30.346;2022-12-16T05:17:29;101100.69;;;-6.28;93.78
66021;BME280;52789;59.980;30.346;2022-12-16T05:20:13;101114.69;;;-6.33;94.66
66021;BME280;52789;59.980;30.346;2022-12-16T05:22:58;101109.50;;;-6.33;94.16
66021;BME280;52789;59.980;30.346;2022-12-16T05:25:42;101102.69;;;-6.37;94.16
66021;BME280;52789;59.980;30.346;2022-12-16T05:28:27;101117.50;;;-6.41;94.10
66021;BME280;52789;59.980;30.346;2022-12-16T05:31:11;101113.63;;;-6.56;93.79
66021;BME280;52789;59.980;30.346;2022-12-16T05:33:55;101115.22;;;-6.51;94.07
66021;BME280;52789;59.980;30.346;2022-12-16T05:36:39;101125.50;;;-6.48;93.89
66021;BME280;52789;59.980;30.346;2022-12-16T05:39:23;101136.44;;;-6.39;94.62
66021;BME280;52789;59.980;30.346;2022-12-16T05:42:07;101134.78;;;-6.41;93.97
66021;BME280;52789;59.980;30.346;2022-12-16T05:44:52;101093.91;;;-6.60;93.87
66021;BME280;52789;59.980;30.346;2022-12-16T05:47:36;101124.56;;;-6.46;93.79
66021;BME280;52789;59.980;30.346;2022-12-16T05:50:20;101143.91;;;-6.58;93.53
66021;BME280;52789;59.980;30.346;2022-12-16T05:53:04;101161.16;;;-6.57;94.36
66021;BME280;52789;59.980;30.346;2022-12-16T05:55:48;101163.19;;;-6.68;94.50
66021;BME280;52789;59.980;30.346;2022-12-16T05:58:32;101172.94;;;-6.76;95.58
66021;BME280;52789;59.980;30.346;2022-12-16T06:01:16;101174.63;;;-6.75;96.03
66021;BME280;52789;59.980;30.346;2022-12-16T06:04:00;101161.06;;;-6.83;95.44
66021;BME280;52789;59.980;30.346;2022-12-16T06:06:44;101173.03;;;-6.79;95.97
66021;BME280;52789;59.980;30.346;2022-12-16T06:09:28;101173.81;;;-6.77;95.75
66021;BME280;52789;59.980;30.346;2022-12-16T06:12:12;101182.22;;;-6.69;95.88
66021;BME280;52789;59.980;30.346;2022-12-16T06:14:56;101174.50;;;-6.70;95.77
66021;BME280;52789;59.980;30.346;2022-12-16T06:17:41;101182.97;;;-6.65;96.20
66021;BME280;52789;59.980;30.346;2022-12-16T06:20:25;101193.91;;;-6.54;95.84
66021;BME280;52789;59.980;30.346;2022-12-16T06:23:11;101198.78;;;-6.43;95.26
66021;BME280;52789;59.980;30.346;2022-12-16T06:25:55;101157.69;;;-6.56;95.02
66021;BME280;52789;59.980;30.346;2022-12-16T06:28:39;101203.28;;;-6.20;94.72
66021;BME280;52789;59.980;30.346;2022-12-16T06:31:23;101200.66;;;-6.19;94.56
66021;BME280;52789;59.980;30.346;2022-12-16T06:34:07;101219.25;;;-6.05;94.59
66021;BME280;52789;59.980;30.346;2022-12-16T06:36:51;101211.47;;;-6.05;94.13
66021;BME280;52789;59.980;30.346;2022-12-16T06:39:44;101210.72;;;-6.10;94.05
66021;BME280;52789;59.980;30.346;2022-12-16T06:42:29;101224.38;;;-6.03;94.76
66021;BME280;52789;59.980;30.346;2022-12-16T06:45:14;101232.50;;;-5.87;93.81
66021;BME280;52789;59.980;30.346;2022-12-16T06:47:58;101238.34;;;-5.81;93.62
66021;BME280;52789;59.980;30.346;2022-12-16T06:50:43;101231.34;;;-5.77;93.42
66021;BME280;52789;59.980;30.346;2022-12-16T06:53:30;101241.41;;;-5.68;93.51
66021;BME280;52789;59.980;30.346;2022-12-16T06:56:14;101243.41;;;-5.76;93.17
66021;BME280;52789;59.980;30.346;2022-12-16T06:58:58;101233.09;;;-5.79;94.13
66021;BME280;52789;59.980;30.346;2022-12-16T07:01:43;101244.22;;;-5.74;93.48
66021;BME280;52789;59.980;30.346;2022-12-16T07:04:30;101266.56;;;-5.70;93.66
66021;BME280;52789;59.980;30.346;2022-12-16T07:07:14;101277.88;;;-5.73;94.39
66021;BME280;52789;59.980;30.346;2022-12-16T07:09:58;101275.44;;;-5.77;94.09
66021;BME280;52789;59.980;30.346;2022-12-16T07:12:42;101292.69;;;-5.76;94.01
66021;BME280;52789;59.980;30.346;2022-12-16T07:15:32;101278.91;;;-5.78;94.52
66021;BME280;52789;59.980;30.346;2022-12-16T07:18:16;101299.66;;;-5.78;94.40
66021;BME280;52789;59.980;30.346;2022-12-16T07:21:01;101310.81;;;-5.75;94.63
66021;BME280;52789;59.980;30.346;2022-12-16T07:23:45;101302.13;;;-5.74;94.13
66021;BME280;52789;59.980;30.346;2022-12-16T07:26:31;101286.19;;;-5.89;94.77
66021;BME280;52789;59.980;30.346;2022-12-16T07:29:16;101310.66;;;-5.70;93.78
66021;BME280;52789;59.980;30.346;2022-12-16T07:32:00;101313.25;;;-5.70;93.75
66021;BME280;52789;59.980;30.346;2022-12-16T07:34:44;101308.28;;;-5.76;94.35
66021;BME280;52789;59.980;30.346;2022-12-16T07:37:29;101336.53;;;-5.67;94.40
66021;BME280;52789;59.980;30.346;2022-12-16T07:40:13;101341.53;;;-5.61;94.36
66021;BME280;52789;59.980;30.346;2022-12-16T07:42:57;101342.03;;;-5.50;94.44
66021;BME280;52789;59.980;30.346;2022-12-16T07:45:42;101342.88;;;-5.48;94.10
66021;BME280;52789;59.980;30.346;2022-12-16T07:48:26;101362.78;;;-5.50;93.24
66021;BME280;52789;59.980;30.346;2022-12-16T07:51:10;101354.16;;;-5.49;93.31
66021;BME280;52789;59.980;30.346;2022-12-16T07:53:54;101360.38;;;-5.56;92.68
66021;BME280;52789;59.980;30.346;2022-12-16T07:56:38;101362.31;;;-5.63;92.65
66021;BME280;52789;59.980;30.346;2022-12-16T07:59:22;101349.78;;;-5.76;93.89
66021;BME280;52789;59.980;30.346;2022-12-16T08:02:08;101375.16;;;-5.58;94.16
66021;BME280;52789;59.980;30.346;2022-12-16T08:04:52;101370.13;;;-5.63;93.29
66021;BME280;52789;59.980;30.346;2022-12-16T08:07:39;101382.72;;;-5.50;92.92
66021;BME280;52789;59.980;30.346;2022-12-16T08:10:23;101385.25;;;-5.47;92.92
66021;BME280;52789;59.980;30.346;2022-12-16T08:13:08;101392.00;;;-5.42;92.83
66021;BME280;52789;59.980;30.346;2022-12-16T08:15:52;101390.19;;;-5.40;93.31
66021;BME280;52789;59.980;30.346;2022-12-16T08:18:36;101393.50;;;-5.35;93.30
66021;BME280;52789;59.980;30.346;2022-12-16T08:21:24;101400.91;;;-5.22;93.57
66021;BME280;52789;59.980;30.346;2022-12-16T08:24:09;101410.31;;;-5.18;93.51
66021;BME280;52789;59.980;30.346;2022-12-16T08:26:53;101376.03;;;-5.30;93.16
66021;BME280;52789;59.980;30.346;2022-12-16T08:29:51;101413.44;;;-5.07;92.46
66021;BME280;52789;59.980;30.346;2022-12-16T08:32:34;101408.34;;;-5.10;92.95
66021;BME280;52789;59.980;30.346;2022-12-16T08:35:18;101410.94;;;-5.10;93.07
66021;BME280;52789;59.980;30.346;2022-12-16T08:38:02;101417.72;;;-5.06;93.78
66021;BME280;52789;59.980;30.346;2022-12-16T08:40:49;101359.91;;;-5.39;93.63
66021;BME280;52789;59.980;30.346;2022-12-16T08:43:34;101415.94;;;-5.04;93.59
66021;BME280;52789;59.980;30.346;2022-12-16T08:46:19;101426.91;;;-4.96;93.84
66021;BME280;52789;59.980;30.346;2022-12-16T08:49:04;101425.13;;;-4.94;93.04
66021;BME280;52789;59.980;30.346;2022-12-16T08:51:48;101381.19;;;-5.28;93.54
66021;BME280;52789;59.980;30.346;2022-12-16T08:54:31;101435.53;;;-4.94;94.18
66021;BME280;52789;59.980;30.346;2022-12-16T08:57:15;101437.81;;;-4.83;93.76
66021;BME280;52789;59.980;30.346;2022-12-16T08:59:59;101443.03;;;-4.85;93.16
66021;BME280;52789;59.980;30.346;2022-12-16T09:02:43;101454.25;;;-4.83;93.20
66021;BME280;52789;59.980;30.346;2022-12-16T09:05:27;101459.47;;;-4.84;93.38
66021;BME280;52789;59.980;30.346;2022-12-16T09:08:11;101449.63;;;-4.75;93.68
66021;BME280;52789;59.980;30.346;2022-12-16T09:10:59;101447.03;;;-4.75;93.05
66021;BME280;52789;59.980;30.346;2022-12-16T09:13:44;101457.00;;;-4.61;93.04
66021;BME280;52789;59.980;30.346;2022-12-16T09:16:28;101458.84;;;-4.64;92.20
66021;BME280;52789;59.980;30.346;2022-12-16T09:19:13;101462.16;;;-4.59;92.66
66021;BME280;52789;59.980;30.346;2022-12-16T09:21:58;101443.53;;;-4.74;92.56
66021;BME280;52789;59.980;30.346;2022-12-16T09:24:41;101463.38;;;-4.71;92.51
66021;BME280;52789;59.980;30.346;2022-12-16T09:27:26;101463.69;;;-4.80;92.97
66021;BME280;52789;59.980;30.346;2022-12-16T09:30:10;101438.69;;;-5.12;92.38
66021;BME280;52789;59.980;30.346;2022-12-16T09:32:54;101482.41;;;-4.99;92.88
66021;BME280;52789;59.980;30.346;2022-12-16T09:35:38;101468.97;;;-5.11;93.72
66021;BME280;52789;59.980;30.346;2022-12-16T09:38:22;101495.28;;;-4.94;93.05
66021;BME280;52789;59.980;30.346;2022-12-16T09:50:52;101514.16;;;-4.87;92.71
66021;BME280;52789;59.980;30.346;2022-12-16T09:53:40;101528.84;;;-4.86;92.34
66021;BME280;52789;59.980;30.346;2022-12-16T09:56:32;101530.53;;;-4.85;92.84
66021;BME280;52789;59.980;30.346;2022-12-16T09:59:23;101532.28;;;-4.86;93.20
66021;BME280;52789;59.980;30.346;2022-12-16T10:02:13;101516.16;;;-4.97;92.62
66021;BME280;52789;59.980;30.346;2022-12-16T10:04:59;101540.97;;;-4.87;93.45
66021;BME280;52789;59.980;30.346;2022-12-16T10:07:51;101551.72;;;-4.99;93.58
66021;BME280;52789;59.980;30.346;2022-12-16T10:10:50;101556.06;;;-5.00;94.52
66021;BME280;52789;59.980;30.346;2022-12-16T10:13:47;101552.06;;;-5.11;94.11
66021;BME280;52789;59.980;30.346;2022-12-16T10:16:36;101557.19;;;-5.08;94.03
66021;BME280;52789;59.980;30.346;2022-12-16T10:28:58;101585.44;;;-5.28;95.85
66021;BME280;52789;59.980;30.346;2022-12-16T10:31:45;101550.56;;;-5.51;96.03
66021;BME280;52789;59.980;30.346;2022-12-16T10:34:30;101588.25;;;-5.36;96.37
66021;BME280;52789;59.980;30.346;2022-12-16T10:37:33;101593.50;;;-5.38;96.14
66021;BME280;52789;59.980;30.346;2022-12-16T10:40:23;101599.56;;;-5.39;96.15
66021;BME280;52789;59.980;30.346;2022-12-16T10:43:37;101611.50;;;-5.32;96.67
66021;BME280;52789;59.980;30.346;2022-12-16T10:46:25;101610.72;;;-5.35;96.07
66021;BME280;52789;59.980;30.346;2022-12-16T10:49:12;101614.22;;;-5.36;96.02
66021;BME280;52789;59.980;30.346;2022-12-16T10:51:57;101613.06;;;-5.58;97.01
66021;BME280;52789;59.980;30.346;2022-12-16T10:54:45;101612.28;;;-5.62;97.17
66021;BME280;52789;59.980;30.346;2022-12-16T10:57:55;101593.66;;;-5.76;97.61
66021;BME280;52789;59.980;30.346;2022-12-16T11:00:48;101621.50;;;-5.50;96.95
66021;BME280;52789;59.980;30.346;2022-12-16T11:03:34;101643.13;;;-5.50;96.78
66021;BME280;52789;59.980;30.346;2022-12-16T11:06:37;101631.34;;;-5.63;97.17
66021;BME280;52789;59.980;30.346;2022-12-16T11:09:28;101650.16;;;-5.55;97.26
66021;BME280;52789;59.980;30.346;2022-12-16T11:14:57;101660.34;;;-5.46;96.80
66021;BME280;52789;59.980;30.346;2022-12-16T11:18:00;101642.41;;;-5.56;96.61
66021;BME280;52789;59.980;30.346;2022-12-16T11:20:44;101671.66;;;-5.48;96.31
66021;BME280;52789;59.980;30.346;2022-12-16T11:23:28;101671.00;;;-5.58;96.05
66021;BME280;52789;59.980;30.346;2022-12-16T11:26:15;101677.16;;;-5.62;97.07
66021;BME280;52789;59.980;30.346;2022-12-16T11:32:05;101684.72;;;-5.53;95.90
66021;BME280;52789;59.980;30.346;2022-12-16T11:34:58;101678.06;;;-5.63;96.73
66021;BME280;52789;59.980;30.346;2022-12-16T11:37:45;101679.81;;;-5.64;96.74
66021;BME280;52789;59.980;30.346;2022-12-16T11:40:31;101686.50;;;-5.55;96.58
66021;BME280;52789;59.980;30.346;2022-12-16T11:43:17;101678.59;;;-5.50;96.33
66021;BME280;52789;59.980;30.346;2022-12-16T11:46:07;101701.78;;;-5.43;95.62
66021;BME280;52789;59.980;30.346;2022-12-16T11:48:58;101699.47;;;-5.55;95.73
66021;BME280;52789;59.980;30.346;2022-12-16T11:52:07;101710.81;;;-5.59;96.59
66021;BME280;52789;59.980;30.346;2022-12-16T11:55:18;101709.69;;;-5.47;97.01
66021;BME280;52789;59.980;30.346;2022-12-16T11:58:16;101698.59;;;-5.54;95.63
66021;BME280;52789;59.980;30.346;2022-12-16T12:01:09;101701.91;;;-5.47;96.27
66021;BME280;52789;59.980;30.346;2022-12-16T12:03:55;101710.13;;;-5.30;95.43
66021;BME280;52789;59.980;30.346;2022-12-16T12:06:50;101711.78;;;-5.27;95.48
66021;BME280;52789;59.980;30.346;2022-12-16T12:09:44;101714.28;;;-5.24;95.33
66021;BME280;52789;59.980;30.346;2022-12-16T12:16:40;101711.78;;;-5.27;95.59
66021;BME280;52789;59.980;30.346;2022-12-16T12:19:41;101720.53;;;-5.32;95.01
66021;BME280;52789;59.980;30.346;2022-12-16T12:22:34;101736.97;;;-5.31;95.22
66021;BME280;52789;59.980;30.346;2022-12-16T12:25:45;101732.22;;;-5.48;95.41
66021;BME280;52789;59.980;30.346;2022-12-16T12:28:58;101728.09;;;-5.58;95.66
66021;BME280;52789;59.980;30.346;2022-12-16T12:32:14;101732.31;;;-5.54;95.77
66021;BME280;52789;59.980;30.346;2022-12-16T12:38:49;101740.84;;;-5.47;95.84
66021;BME280;52789;59.980;30.346;2022-12-16T12:47:30;101758.50;;;-5.63;95.17
66021;BME280;52789;59.980;30.346;2022-12-16T12:50:55;101757.53;;;-5.59;95.71
66021;BME280;52789;59.980;30.346;2022-12-16T12:53:52;101749.25;;;-5.73;96.22
66021;BME280;52789;59.980;30.346;2022-12-16T12:56:48;101757.84;;;-5.71;96.46
66021;BME280;52789;59.980;30.346;2022-12-16T13:02:26;101745.84;;;-5.75;96.73
66021;BME280;52789;59.980;30.346;2022-12-16T13:05:13;101767.06;;;-5.59;95.64
66021;BME280;52789;59.980;30.346;2022-12-16T13:11:19;101776.38;;;-5.51;96.23
66021;BME280;52789;59.980;30.346;2022-12-16T13:17:18;101793.00;;;-5.58;96.05
66021;BME280;52789;59.980;30.346;2022-12-16T13:20:31;101804.47;;;-5.68;95.86
66021;BME280;52789;59.980;30.346;2022-12-16T13:23:28;101808.88;;;-5.72;96.54
66021;BME280;52789;59.980;30.346;2022-12-16T13:26:18;101802.78;;;-5.69;96.48
66021;BME280;52789;59.980;30.346;2022-12-16T13:29:23;101811.59;;;-5.76;96.16
66021;BME280;52789;59.980;30.346;2022-12-16T13:32:23;101809.91;;;-5.80;95.87
66021;BME280;52789;59.980;30.346;2022-12-16T13:38:01;101816.91;;;-5.84;96.54
66021;BME280;52789;59.980;30.346;2022-12-16T13:40:48;101822.13;;;-5.85;96.54
66021;BME280;52789;59.980;30.346;2022-12-16T13:43:54;101834.41;;;-5.92;96.07
66021;BME280;52789;59.980;30.346;2022-12-16T13:46:49;101833.44;;;-5.88;96.76
66021;BME280;52789;59.980;30.346;2022-12-16T14:04:38;101842.50;;;-6.06;96.85
66021;BME280;52789;59.980;30.346;2022-12-16T14:07:24;101818.75;;;-6.29;95.95
66021;BME280;52789;59.980;30.346;2022-12-16T14:10:35;101853.56;;;-5.98;96.30
66021;BME280;52789;59.980;30.346;2022-12-16T14:23:06;101863.69;;;-5.87;96.51
66021;BME280;52789;59.980;30.346;2022-12-16T14:25:25;101879.94;;;-5.79;96.60
66021;BME280;52789;59.980;30.346;2022-12-16T14:28:28;101880.69;;;-5.72;96.30
66021;BME280;52789;59.980;30.346;2022-12-16T14:31:21;101883.38;;;-5.78;96.12
66021;BME280;52789;59.980;30.346;2022-12-16T14:34:27;101884.28;;;-5.81;95.71
66021;BME280;52789;59.980;30.346;2022-12-16T14:37:16;101886.84;;;-5.78;96.27
66021;BME280;52789;59.980;30.346;2022-12-16T14:40:02;101891.22;;;-5.81;95.99
66021;BME280;52789;59.980;30.346;2022-12-16T14:42:48;101895.53;;;-5.80;96.01
66021;BME280;52789;59.980;30.346;2022-12-16T14:45:36;101894.72;;;-5.82;96.46
66021;BME280;52789;59.980;30.346;2022-12-16T14:48:28;101888.22;;;-6.02;95.40
66021;BME280;52789;59.980;30.346;2022-12-16T14:51:28;101910.75;;;-6.04;96.06
66021;BME280;52789;59.980;30.346;2022-12-16T14:57:00;101929.19;;;-6.20;95.86
66021;BME280;52789;59.980;30.346;2022-12-16T14:59:59;101937.00;;;-6.22;96.36
66021;BME280;52789;59.980;30.346;2022-12-16T15:02:46;101936.19;;;-6.24;96.97
66021;BME280;52789;59.980;30.346;2022-12-16T15:05:34;101928.47;;;-6.27;97.01
66021;BME280;52789;59.980;30.346;2022-12-16T15:08:24;101940.31;;;-6.14;96.81
66021;BME280;52789;59.980;30.346;2022-12-16T15:11:11;101949.69;;;-6.05;96.67
66021;BME280;52789;59.980;30.346;2022-12-16T15:13:58;101948.13;;;-6.15;95.67
66021;BME280;52789;59.980;30.346;2022-12-16T15:16:43;101957.63;;;-6.16;96.00
66021;BME280;52789;59.980;30.346;2022-12-16T15:19:45;101966.25;;;-6.14;97.00
66021;BME280;52789;59.980;30.346;2022-12-16T15:22:35;101962.69;;;-6.07;96.65
66021;BME280;52789;59.980;30.346;2022-12-16T15:25:24;101959.13;;;-6.03;97.11
66021;BME280;52789;59.980;30.346;2022-12-16T15:31:29;101953.00;;;-5.99;97.75
66021;BME280;52789;59.980;30.346;2022-12-16T15:34:46;101951.91;;;-5.88;98.26
66021;BME280;52789;59.980;30.346;2022-12-16T15:37:39;101939.84;;;-5.89;97.64
66021;BME280;52789;59.980;30.346;2022-12-16T15:40:30;101953.56;;;-5.84;97.12
66021;BME280;52789;59.980;30.346;2022-12-16T15:43:29;101962.16;;;-5.82;97.33
66021;BME280;52789;59.980;30.346;2022-12-16T15:46:22;101963.13;;;-5.88;97.54
66021;BME280;52789;59.980;30.346;2022-12-16T15:49:31;101963.03;;;-5.83;98.12
66021;BME280;52789;59.980;30.346;2022-12-16T15:52:33;101964.88;;;-5.88;98.93